Flight Track Log - Related Links

Times and Time Zones

All times are in EDT time to prevent confusion due to time zone crossing. See the SWA1969 flight status page for this flight to view local times or setup timezone preferences in your user account.


Time Position Orientation Groundspeed Altitude Reporting Facility
EDT Latitude Longitude Course Direction KTS MPH feet Rate Location/Type
Mon 11:12:39 AM 39.2500 -94.7333 180° South 181 208 3,400  Level Kansas City TRACON
Mon 11:13:12 AM 39.2317 -94.7456 207° Southwest 192 221 4,600 2,842 Climbing Kansas City Center
Mon 11:14:14 AM 39.2197 -94.6456 99° East 275 316 7,900 2,952 Climbing Kansas City Center
Mon 11:15:16 AM 39.2756 -94.5775 43° Northeast 299 344 10,700 2,544 Climbing Kansas City Center
Mon 11:16:19 AM 39.3597 -94.4825 41° Northeast 361 415 13,200 2,400 Climbing Kansas City Center
Mon 11:17:21 AM 39.4317 -94.3947 43° Northeast 376 433 15,700 2,585 Climbing Kansas City Center
Mon 11:18:22 AM 39.5192 -94.2872 43° Northeast 388 447 18,500 2,178 Climbing Kansas City Center
Mon 11:19:36 AM 39.5989 -94.1925 42° Northeast 404 465 20,600 2,102 Climbing Kansas City Center
Mon 11:20:39 AM 39.7064 -94.0603 43° Northeast 418 481 23,300 2,112 Climbing Kansas City Center
Mon 11:21:41 AM 39.7886 -93.9575 44° Northeast 427 491 25,000 1,672 Climbing Kansas City Center
Mon 11:22:41 AM 39.8825 -93.8281 47° Northeast 444 511 26,700 1,645 Climbing Kansas City Center
Mon 11:23:45 AM 39.9708 -93.7111 45° Northeast 452 520 28,400 1,728 Climbing Kansas City Center
Mon 11:24:46 AM 40.0114 -93.5569 71° East 456 525 30,300 1,248 Climbing Kansas City Center
Mon 11:25:50 AM 40.0425 -93.3975 76° East 457 526 31,000 432 Climbing Kansas City Center
Mon 11:26:51 AM 40.0725 -93.2389 76° East 456 525 31,200 843 Climbing Kansas City Center
Mon 11:27:51 AM 40.1111 -93.0453 75° East 463 533 32,700 871 Climbing Kansas City Center
Mon 11:28:55 AM 40.1392 -92.8953 76° East 466 536 33,000 144 Climbing Kansas City Center
Mon 11:29:56 AM 40.1736 -92.7122 76° East 465 535 33,000  Level Kansas City Center
Mon 11:31:00 AM 40.2033 -92.5553 76° East 464 534 33,000  Level Kansas City Center
Mon 11:32:00 AM 40.2386 -92.3781 75° East 448 516 33,000  Level Kansas City Center
Mon 11:33:04 AM 40.2667 -92.2156 77° East 462 532 33,000  Level Kansas City Center
Mon 11:34:06 AM 40.2953 -92.0550 77° East 459 528 33,000  Level Kansas City Center
Mon 11:35:06 AM 40.3236 -91.8936 77° East 459 528 33,000  Level Kansas City Center
Mon 11:36:09 AM 40.3578 -91.7028 77° East 454 522 33,000  Level Kansas City Center
Mon 11:37:09 AM 40.3858 -91.5414 77° East 456 525 33,000  Level Kansas City Center
Mon 11:38:13 AM 40.4128 -91.3797 78° East 457 526 33,000  Level Kansas City Center
Mon 11:38:35 AM 40.4267 -91.3164 74° East 456 525 33,000  Level Chicago Center
Mon 11:39:37 AM 40.4519 -91.1603 78° East 456 525 33,000  Level Chicago Center
Mon 11:40:39 AM 40.4864 -90.9661 77° East 456 525 33,000  Level Chicago Center
Mon 11:41:41 AM 40.5147 -90.8053 77° East 452 520 33,000  Level Chicago Center
Mon 11:42:43 AM 40.5411 -90.6436 78° East 452 520 33,000 -290 Level Chicago Center
Mon 11:43:45 AM 40.5669 -90.4853 78° East 446 513 32,400 -1,122 Descending Chicago Center
Mon 11:44:46 AM 40.5933 -90.3328 77° East 434 499 30,700 -1,805 Descending Chicago Center
Mon 11:45:48 AM 40.6183 -90.1714 78° East 415 478 28,700 -1,790 Descending Chicago Center
Mon 11:46:50 AM 40.6419 -90.0306 77° East 400 460 27,000 -1,694 Descending Chicago Center
Mon 11:47:52 AM 40.6644 -89.8925 78° East 390 449 25,200 -1,742 Descending Chicago Center
Mon 11:48:54 AM 40.6897 -89.7572 76° East 383 441 23,400 -1,887 Descending Chicago Center
Mon 11:49:56 AM 40.7556 -89.6186 58° Northeast 373 429 21,300 -1,854 Descending Chicago Center
Mon 11:50:57 AM 40.8058 -89.5011 60° Northeast 361 415 19,600 -1,659 Descending Chicago Center
Mon 11:51:59 AM 40.8539 -89.3894 60° Northeast 352 405 17,900 -2,177 Descending Chicago Center
Mon 11:53:01 AM 40.9033 -89.2747 60° Northeast 359 413 15,100 -2,129 Descending Chicago Center
Mon 11:54:03 AM 40.9694 -89.1700 50° Northeast 367 422 13,500 -1,548 Descending Chicago Center
Mon 11:55:05 AM 41.0331 -89.0789 47° Northeast 356 410 11,900 -1,694 Descending Chicago Center
Mon 11:56:07 AM 41.1086 -88.9672 48° Northeast 342 394 10,000 -919 Descending Chicago Center
Mon 11:57:09 AM 41.1678 -88.8797 48° Northeast 325 374 10,000  Level Chicago Center
Mon 11:58:10 AM 41.2258 -88.7950 48° Northeast 314 361 10,000 -439 Level Chicago Center
Mon 11:59:12 AM 41.2806 -88.7131 48° Northeast 303 349 9,100 -1,113 Descending Chicago Center
Mon 12:00:14 PM 41.3342 -88.6336 48° Northeast 293 337 7,700 -1,355 Descending Chicago Center
Mon 12:01:16 PM 41.3878 -88.5539 48° Northeast 289 333 6,300 -823 Descending Chicago Center
Mon 12:02:18 PM 41.4386 -88.4531 56° Northeast 275 316 6,000 -146 Descending Chicago Center
Mon 12:03:19 PM 41.4800 -88.3697 56° Northeast 270 311 6,000 -488 Level Chicago Center
Mon 12:04:21 PM 41.5006 -88.2758 74° East 263 303 5,000 -484 Descending Chicago Center
Mon 12:05:23 PM 41.5189 -88.1789 76° East 267 307 5,000  Level Chicago Center
Mon 12:06:25 PM 41.5383 -88.0819 75° East 267 307 5,000 -387 Level Chicago Center
Mon 12:07:27 PM 41.5572 -87.9853 75° East 266 306 4,200 -878 Descending Chicago Center
Mon 12:08:28 PM 41.5753 -87.8897 76° East 266 306 3,200 -585 Descending Chicago Center
Mon 12:09:30 PM 41.6044 -87.8022 66° East 267 307 3,000 -198 Descending Chicago Center
Mon 12:09:59 PM 41.6333 -87.7500 53° Northeast 277 319 2,900 -472 Descending Chicago TRACON
Mon 12:10:59 PM 41.7000 -87.7000 29° Northeast 264 304 2,300 -500 Descending Chicago TRACON
Mon 12:11:59 PM 41.7500 -87.6667 26° Northeast 221 254 1,900 -397 Descending Chicago TRACON
Mon 12:13:00 PM 41.8000 -87.6833 346° North 148 170 1,500 -496 Descending Chicago TRACON
Mon 12:14:00 PM 41.8000 -87.7333 270° West 137 158 900 -600 Descending Chicago TRACON

Login

Don't have an account? Register now (free) for customized features, flight alerts, and more!